sensor_id;sensor_type;location;lat;lon;timestamp;pressure;altitude;pressure_sealevel;temperature;humidity
70445;BME280;57902;49.638;11.070;2022-10-16T00:00:35;98183.16;;;15.27;100.00
70445;BME280;57902;49.638;11.070;2022-10-16T00:03:02;98181.59;;;15.24;100.00
70445;BME280;57902;49.638;11.070;2022-10-16T00:05:29;98186.63;;;15.27;100.00
70445;BME280;57902;49.638;11.070;2022-10-16T00:07:56;98184.94;;;15.26;100.00
70445;BME280;57902;49.638;11.070;2022-10-16T00:10:22;98176.25;;;15.27;100.00
70445;BME280;57902;49.638;11.070;2022-10-16T00:12:49;98181.44;;;15.27;100.00
70445;BME280;57902;49.638;11.070;2022-10-16T00:15:16;98185.75;;;15.27;100.00
70445;BME280;57902;49.638;11.070;2022-10-16T00:17:42;98191.81;;;15.27;100.00
70445;BME280;57902;49.638;11.070;2022-10-16T00:20:09;98187.44;;;15.28;100.00
70445;BME280;57902;49.638;11.070;2022-10-16T00:22:35;98190.88;;;15.28;100.00
70445;BME280;57902;49.638;11.070;2022-10-16T00:25:02;98196.78;;;15.32;100.00
70445;BME280;57902;49.638;11.070;2022-10-16T00:27:28;98196.78;;;15.32;100.00
70445;BME280;57902;49.638;11.070;2022-10-16T00:29:55;98192.56;;;15.29;100.00
70445;BME280;57902;49.638;11.070;2022-10-16T00:32:21;98188.34;;;15.27;100.00
70445;BME280;57902;49.638;11.070;2022-10-16T00:34:48;98179.00;;;15.24;100.00
70445;BME280;57902;49.638;11.070;2022-10-16T00:37:14;98183.16;;;15.27;100.00
70445;BME280;57902;49.638;11.070;2022-10-16T00:39:41;98186.69;;;15.26;100.00
70445;BME280;57902;49.638;11.070;2022-10-16T00:42:15;98179.81;;;15.25;100.00
70445;BME280;57902;49.638;11.070;2022-10-16T00:44:55;98173.91;;;15.21;100.00
70445;BME280;57902;49.638;11.070;2022-10-16T00:47:35;98167.91;;;15.20;100.00
70445;BME280;57902;49.638;11.070;2022-10-16T00:50:13;98170.97;;;15.29;100.00
70445;BME280;57902;49.638;11.070;2022-10-16T00:52:46;98170.09;;;15.28;100.00
70445;BME280;57902;49.638;11.070;2022-10-16T00:55:13;98177.00;;;15.29;100.00
70445;BME280;57902;49.638;11.070;2022-10-16T00:57:41;98184.09;;;15.26;100.00
70445;BME280;57902;49.638;11.070;2022-10-16T01:00:10;98181.44;;;15.27;100.00
70445;BME280;57902;49.638;11.070;2022-10-16T01:02:37;98193.47;;;15.28;100.00
70445;BME280;57902;49.638;11.070;2022-10-16T01:05:04;98205.63;;;15.28;100.00
70445;BME280;57902;49.638;11.070;2022-10-16T01:10:35;98199.53;;;15.29;100.00
70445;BME280;57902;49.638;11.070;2022-10-16T01:13:07;98193.28;;;15.33;100.00
70445;BME280;57902;49.638;11.070;2022-10-16T01:15:39;98198.59;;;15.30;100.00
70445;BME280;57902;49.638;11.070;2022-10-16T01:18:14;98193.72;;;15.23;100.00
70445;BME280;57902;49.638;11.070;2022-10-16T01:21:07;98201.25;;;15.28;100.00
70445;BME280;57902;49.638;11.070;2022-10-16T01:29:28;98190.13;;;15.26;100.00
70445;BME280;57902;49.638;11.070;2022-10-16T01:31:59;98194.69;;;15.21;100.00
70445;BME280;57902;49.638;11.070;2022-10-16T01:34:41;98194.69;;;15.21;100.00
70445;BME280;57902;49.638;11.070;2022-10-16T01:37:12;98186.78;;;15.24;100.00
70445;BME280;57902;49.638;11.070;2022-10-16T01:39:42;98195.41;;;15.25;100.00
70445;BME280;57902;49.638;11.070;2022-10-16T01:42:15;98196.47;;;15.20;100.00
70445;BME280;57902;49.638;11.070;2022-10-16T01:44:43;98196.53;;;15.19;100.00
70445;BME280;57902;49.638;11.070;2022-10-16T01:47:12;98210.66;;;15.13;100.00
70445;BME280;57902;49.638;11.070;2022-10-16T01:49:40;98227.22;;;15.11;100.00
70445;BME280;57902;49.638;11.070;2022-10-16T01:52:18;98227.44;;;15.06;100.00
70445;BME280;57902;49.638;11.070;2022-10-16T01:54:49;98215.25;;;15.08;100.00
70445;BME280;57902;49.638;11.070;2022-10-16T01:57:16;98228.41;;;15.05;100.00
70445;BME280;57902;49.638;11.070;2022-10-16T01:59:47;98231.16;;;15.02;100.00
70445;BME280;57902;49.638;11.070;2022-10-16T02:02:17;98226.63;;;15.05;100.00
70445;BME280;57902;49.638;11.070;2022-10-16T02:04:48;98229.06;;;15.09;100.00
70445;BME280;57902;49.638;11.070;2022-10-16T02:07:16;98229.69;;;15.14;100.00
70445;BME280;57902;49.638;11.070;2022-10-16T02:09:43;98233.13;;;15.14;100.00
70445;BME280;57902;49.638;11.070;2022-10-16T02:12:18;98229.78;;;15.12;100.00
70445;BME280;57902;49.638;11.070;2022-10-16T02:14:45;98234.03;;;15.13;100.00
70445;BME280;57902;49.638;11.070;2022-10-16T02:17:14;98229.53;;;15.17;100.00
70445;BME280;57902;49.638;11.070;2022-10-16T02:19:41;98226.88;;;15.18;100.00
70445;BME280;57902;49.638;11.070;2022-10-16T02:22:10;98218.22;;;15.18;100.00
70445;BME280;57902;49.638;11.070;2022-10-16T02:25:01;98221.69;;;15.18;100.00
70445;BME280;57902;49.638;11.070;2022-10-16T02:27:38;98210.28;;;15.21;100.00
70445;BME280;57902;49.638;11.070;2022-10-16T02:30:11;98214.78;;;15.17;100.00
70445;BME280;57902;49.638;11.070;2022-10-16T02:32:42;98222.66;;;15.16;100.00
70445;BME280;57902;49.638;11.070;2022-10-16T02:35:11;98228.53;;;15.19;100.00
70445;BME280;57902;49.638;11.070;2022-10-16T02:37:40;98211.13;;;15.21;100.00
70445;BME280;57902;49.638;11.070;2022-10-16T02:40:08;98214.47;;;15.23;100.00
70445;BME280;57902;49.638;11.070;2022-10-16T02:42:36;98213.09;;;15.16;100.00
70445;BME280;57902;49.638;11.070;2022-10-16T02:45:04;98227.03;;;15.15;100.00
70445;BME280;57902;49.638;11.070;2022-10-16T02:47:31;98219.69;;;15.23;100.00
70445;BME280;57902;49.638;11.070;2022-10-16T02:49:57;98222.66;;;15.16;100.00
70445;BME280;57902;49.638;11.070;2022-10-16T02:52:24;98226.16;;;15.15;100.00
70445;BME280;57902;49.638;11.070;2022-10-16T02:54:51;98217.38;;;15.17;100.00
70445;BME280;57902;49.638;11.070;2022-10-16T02:57:18;98219.09;;;15.18;100.00
70445;BME280;57902;49.638;11.070;2022-10-16T02:59:44;98231.28;;;15.16;100.00
70445;BME280;57902;49.638;11.070;2022-10-16T03:02:11;98234.81;;;15.15;100.00
70445;BME280;57902;49.638;11.070;2022-10-16T03:04:38;98225.19;;;15.17;100.00
70445;BME280;57902;49.638;11.070;2022-10-16T03:07:04;98232.06;;;15.18;100.00
70445;BME280;57902;49.638;11.070;2022-10-16T03:09:31;98230.38;;;15.17;100.00
70445;BME280;57902;49.638;11.070;2022-10-16T03:11:57;98239.69;;;15.21;100.00
70445;BME280;57902;49.638;11.070;2022-10-16T03:14:24;98236.13;;;15.24;100.00
70445;BME280;57902;49.638;11.070;2022-10-16T03:16:51;98230.16;;;15.22;100.00
70445;BME280;57902;49.638;11.070;2022-10-16T03:19:18;98232.00;;;15.20;100.00
70445;BME280;57902;49.638;11.070;2022-10-16T03:21:45;98232.91;;;15.19;100.00
70445;BME280;57902;49.638;11.070;2022-10-16T03:24:11;98222.34;;;15.22;100.00
70445;BME280;57902;49.638;11.070;2022-10-16T03:26:38;98227.41;;;15.25;100.00
70445;BME280;57902;49.638;11.070;2022-10-16T03:29:04;98232.81;;;15.20;100.00
70445;BME280;57902;49.638;11.070;2022-10-16T03:31:31;98231.84;;;15.23;100.00
70445;BME280;57902;49.638;11.070;2022-10-16T03:33:58;98232.91;;;15.19;100.00
70445;BME280;57902;49.638;11.070;2022-10-16T03:36:24;98240.59;;;15.20;100.00
70445;BME280;57902;49.638;11.070;2022-10-16T03:38:51;98243.28;;;15.19;100.00
70445;BME280;57902;49.638;11.070;2022-10-16T03:41:17;98238.91;;;15.19;100.00
70445;BME280;57902;49.638;11.070;2022-10-16T03:43:44;98238.09;;;15.19;100.00
70445;BME280;57902;49.638;11.070;2022-10-16T03:46:10;98244.34;;;15.15;100.00
70445;BME280;57902;49.638;11.070;2022-10-16T03:48:37;98240.09;;;15.14;100.00
70445;BME280;57902;49.638;11.070;2022-10-16T03:51:03;98239.16;;;15.15;100.00
70445;BME280;57902;49.638;11.070;2022-10-16T03:53:30;98241.00;;;15.13;100.00
70445;BME280;57902;49.638;11.070;2022-10-16T03:55:56;98242.06;;;15.09;100.00
70445;BME280;57902;49.638;11.070;2022-10-16T03:58:23;98234.34;;;15.07;100.00
70445;BME280;57902;49.638;11.070;2022-10-16T04:00:49;98230.84;;;15.08;100.00
70445;BME280;57902;49.638;11.070;2022-10-16T04:03:16;98236.19;;;15.05;100.00
70445;BME280;57902;49.638;11.070;2022-10-16T04:05:44;98240.44;;;15.06;100.00
70445;BME280;57902;49.638;11.070;2022-10-16T04:08:11;98241.22;;;15.08;100.00
70445;BME280;57902;49.638;11.070;2022-10-16T04:10:37;98249.84;;;15.09;100.00
70445;BME280;57902;49.638;11.070;2022-10-16T04:13:04;98255.78;;;15.11;100.00
70445;BME280;57902;49.638;11.070;2022-10-16T04:15:30;98263.56;;;15.11;100.00
70445;BME280;57902;49.638;11.070;2022-10-16T04:17:57;98260.72;;;15.17;100.00
70445;BME280;57902;49.638;11.070;2022-10-16T04:20:23;98268.56;;;15.15;100.00
70445;BME280;57902;49.638;11.070;2022-10-16T04:22:50;98269.31;;;15.17;100.00
70445;BME280;57902;49.638;11.070;2022-10-16T04:25:16;98272.81;;;15.16;100.00
70445;BME280;57902;49.638;11.070;2022-10-16T04:27:43;98267.78;;;15.13;100.00
70445;BME280;57902;49.638;11.070;2022-10-16T04:30:11;98278.16;;;15.13;100.00
70445;BME280;57902;49.638;11.070;2022-10-16T04:32:38;98276.38;;;15.15;100.00
70445;BME280;57902;49.638;11.070;2022-10-16T04:35:05;98273.75;;;15.15;100.00
70445;BME280;57902;49.638;11.070;2022-10-16T04:37:32;98264.34;;;15.13;100.00
70445;BME280;57902;49.638;11.070;2022-10-16T04:39:58;98261.84;;;15.11;100.00
70445;BME280;57902;49.638;11.070;2022-10-16T04:42:25;98275.56;;;15.13;100.00
70445;BME280;57902;49.638;11.070;2022-10-16T04:44:51;98266.06;;;15.14;100.00
70445;BME280;57902;49.638;11.070;2022-10-16T04:47:17;98274.75;;;15.13;100.00
70445;BME280;57902;49.638;11.070;2022-10-16T04:49:44;98269.78;;;15.08;100.00
70445;BME280;57902;49.638;11.070;2022-10-16T04:52:10;98272.53;;;15.05;100.00
70445;BME280;57902;49.638;11.070;2022-10-16T04:54:37;98265.50;;;15.07;100.00
70445;BME280;57902;49.638;11.070;2022-10-16T04:57:03;98270.75;;;15.05;100.00
70445;BME280;57902;49.638;11.070;2022-10-16T04:59:31;98278.41;;;15.09;100.00
70445;BME280;57902;49.638;11.070;2022-10-16T05:01:57;98269.72;;;15.10;100.00
70445;BME280;57902;49.638;11.070;2022-10-16T05:04:24;98270.59;;;15.09;100.00
70445;BME280;57902;49.638;11.070;2022-10-16T05:06:50;98267.94;;;15.10;100.00
70445;BME280;57902;49.638;11.070;2022-10-16T05:09:16;98265.66;;;15.04;100.00
70445;BME280;57902;49.638;11.070;2022-10-16T05:11:43;98264.81;;;15.03;100.00
70445;BME280;57902;49.638;11.070;2022-10-16T05:14:09;98273.28;;;15.07;100.00
70445;BME280;57902;49.638;11.070;2022-10-16T05:16:36;98266.63;;;15.01;100.00
70445;BME280;57902;49.638;11.070;2022-10-16T05:19:02;98271.75;;;15.03;100.00
70445;BME280;57902;49.638;11.070;2022-10-16T05:21:48;98279.53;;;15.03;100.00
70445;BME280;57902;49.638;11.070;2022-10-16T05:24:15;98273.66;;;14.99;100.00
70445;BME280;57902;49.638;11.070;2022-10-16T05:26:42;98275.38;;;14.99;100.00
70445;BME280;57902;49.638;11.070;2022-10-16T05:29:09;98288.75;;;14.91;100.00
70445;BME280;57902;49.638;11.070;2022-10-16T05:31:35;98294.91;;;14.88;100.00
70445;BME280;57902;49.638;11.070;2022-10-16T05:34:02;98283.63;;;14.90;100.00
70445;BME280;57902;49.638;11.070;2022-10-16T05:36:28;98284.47;;;14.90;100.00
70445;BME280;57902;49.638;11.070;2022-10-16T05:38:55;98308.59;;;14.92;100.00
70445;BME280;57902;49.638;11.070;2022-10-16T05:41:21;98315.59;;;14.90;100.00
70445;BME280;57902;49.638;11.070;2022-10-16T05:43:49;98318.97;;;14.92;100.00
70445;BME280;57902;49.638;11.070;2022-10-16T05:46:16;98323.88;;;14.98;100.00
70445;BME280;57902;49.638;11.070;2022-10-16T05:48:43;98328.38;;;14.95;100.00
70445;BME280;57902;49.638;11.070;2022-10-16T05:51:11;98337.69;;;14.99;100.00
70445;BME280;57902;49.638;11.070;2022-10-16T05:53:40;98339.16;;;15.04;100.00
70445;BME280;57902;49.638;11.070;2022-10-16T05:56:09;98336.50;;;15.06;100.00
70445;BME280;57902;49.638;11.070;2022-10-16T05:58:37;98326.25;;;15.03;100.00
70445;BME280;57902;49.638;11.070;2022-10-16T06:01:11;98333.81;;;15.08;100.00
70445;BME280;57902;49.638;11.070;2022-10-16T06:03:38;98332.25;;;15.05;100.00
70445;BME280;57902;49.638;11.070;2022-10-16T06:06:16;98335.50;;;15.09;100.00
70445;BME280;57902;49.638;11.070;2022-10-16T06:08:44;98340.56;;;15.12;100.00
70445;BME280;57902;49.638;11.070;2022-10-16T06:11:16;98344.63;;;15.17;100.00
70445;BME280;57902;49.638;11.070;2022-10-16T06:13:43;98348.63;;;15.25;100.00
70445;BME280;57902;49.638;11.070;2022-10-16T06:16:12;98338.72;;;15.33;100.00
70445;BME280;57902;49.638;11.070;2022-10-16T06:18:39;98336.66;;;15.39;100.00
70445;BME280;57902;49.638;11.070;2022-10-16T06:21:11;98342.91;;;15.35;100.00
70445;BME280;57902;49.638;11.070;2022-10-16T06:23:38;98333.06;;;15.42;100.00
70445;BME280;57902;49.638;11.070;2022-10-16T06:26:10;98343.84;;;15.34;100.00
70445;BME280;57902;49.638;11.070;2022-10-16T06:28:37;98340.38;;;15.34;100.00
70445;BME280;57902;49.638;11.070;2022-10-16T06:31:05;98346.63;;;15.30;100.00
70445;BME280;57902;49.638;11.070;2022-10-16T06:33:34;98366.50;;;15.31;100.00
70445;BME280;57902;49.638;11.070;2022-10-16T06:38:32;98357.94;;;15.29;100.00
70445;BME280;57902;49.638;11.070;2022-10-16T06:40:59;98357.09;;;15.28;100.00
70445;BME280;57902;49.638;11.070;2022-10-16T06:43:28;98355.06;;;15.35;100.00
70445;BME280;57902;49.638;11.070;2022-10-16T06:45:59;98368.72;;;15.38;100.00
70445;BME280;57902;49.638;11.070;2022-10-16T06:48:26;98359.41;;;15.34;100.00
70445;BME280;57902;49.638;11.070;2022-10-16T06:50:59;98365.75;;;15.29;100.00
70445;BME280;57902;49.638;11.070;2022-10-16T06:53:28;98377.03;;;15.28;100.00
70445;BME280;57902;49.638;11.070;2022-10-16T06:55:54;98378.28;;;15.38;100.00
70445;BME280;57902;49.638;11.070;2022-10-16T06:58:21;98377.59;;;15.34;100.00
70445;BME280;57902;49.638;11.070;2022-10-16T07:00:49;98389.81;;;15.32;100.00
70445;BME280;57902;49.638;11.070;2022-10-16T07:03:20;98396.75;;;15.32;100.00
70445;BME280;57902;49.638;11.070;2022-10-16T07:05:47;98400.97;;;15.34;100.00
70445;BME280;57902;49.638;11.070;2022-10-16T07:08:13;98399.28;;;15.33;100.00
70445;BME280;57902;49.638;11.070;2022-10-16T07:10:40;98405.38;;;15.32;100.00
70445;BME280;57902;49.638;11.070;2022-10-16T07:13:06;98410.72;;;15.29;100.00
70445;BME280;57902;49.638;11.070;2022-10-16T07:15:34;98415.25;;;15.26;100.00
70445;BME280;57902;49.638;11.070;2022-10-16T07:18:00;98414.16;;;15.30;100.00
70445;BME280;57902;49.638;11.070;2022-10-16T07:20:27;98417.63;;;15.30;100.00
70445;BME280;57902;49.638;11.070;2022-10-16T07:22:53;98423.63;;;15.31;100.00
70445;BME280;57902;49.638;11.070;2022-10-16T07:25:20;98420.13;;;15.32;100.00
70445;BME280;57902;49.638;11.070;2022-10-16T07:27:46;98439.00;;;15.35;100.00
70445;BME280;57902;49.638;11.070;2022-10-16T07:30:12;98443.22;;;15.38;100.00
70445;BME280;57902;49.638;11.070;2022-10-16T07:32:39;98441.34;;;15.42;100.00
70445;BME280;57902;49.638;11.070;2022-10-16T07:35:06;98443.41;;;15.52;100.00
70445;BME280;57902;49.638;11.070;2022-10-16T07:37:32;98446.94;;;15.51;100.00
70445;BME280;57902;49.638;11.070;2022-10-16T07:39:59;98442.28;;;15.58;100.00
70445;BME280;57902;49.638;11.070;2022-10-16T07:42:27;98442.28;;;15.58;100.00
70445;BME280;57902;49.638;11.070;2022-10-16T07:44:53;98434.28;;;15.63;100.00
70445;BME280;57902;49.638;11.070;2022-10-16T07:47:19;98437.41;;;15.69;100.00
70445;BME280;57902;49.638;11.070;2022-10-16T07:49:46;98440.50;;;15.78;100.00
70445;BME280;57902;49.638;11.070;2022-10-16T07:52:13;98442.13;;;15.80;100.00
70445;BME280;57902;49.638;11.070;2022-10-16T07:54:39;98449.63;;;15.86;100.00
70445;BME280;57902;49.638;11.070;2022-10-16T07:57:06;98451.16;;;15.90;100.00
70445;BME280;57902;49.638;11.070;2022-10-16T07:59:32;98447.19;;;16.01;100.00
70445;BME280;57902;49.638;11.070;2022-10-16T08:01:59;98443.47;;;16.06;100.00
70445;BME280;57902;49.638;11.070;2022-10-16T08:04:25;98447.38;;;16.15;100.00
70445;BME280;57902;49.638;11.070;2022-10-16T08:06:52;98457.16;;;16.27;100.00
70445;BME280;57902;49.638;11.070;2022-10-16T08:09:20;98462.50;;;16.42;100.00
70445;BME280;57902;49.638;11.070;2022-10-16T08:11:46;98461.88;;;16.54;96.73
70445;BME280;57902;49.638;11.070;2022-10-16T08:14:13;98465.91;;;16.60;97.19
70445;BME280;57902;49.638;11.070;2022-10-16T08:16:39;98476.09;;;16.65;96.78
70445;BME280;57902;49.638;11.070;2022-10-16T08:19:06;98472.81;;;16.61;96.49
70445;BME280;57902;49.638;11.070;2022-10-16T08:21:32;98474.84;;;16.72;94.43
70445;BME280;57902;49.638;11.070;2022-10-16T08:23:59;98476.09;;;16.65;94.69
70445;BME280;57902;49.638;11.070;2022-10-16T08:26:26;98473.97;;;16.55;95.52
70445;BME280;57902;49.638;11.070;2022-10-16T08:28:54;98467.84;;;16.56;94.77
70445;BME280;57902;49.638;11.070;2022-10-16T08:31:21;98470.81;;;16.49;96.38
70445;BME280;57902;49.638;11.070;2022-10-16T08:33:47;98467.47;;;16.47;96.46
70445;BME280;57902;49.638;11.070;2022-10-16T08:36:15;98466.47;;;16.49;95.95
70445;BME280;57902;49.638;11.070;2022-10-16T08:38:42;98468.09;;;16.52;96.50
70445;BME280;57902;49.638;11.070;2022-10-16T08:47:01;98462.38;;;16.96;96.05
70445;BME280;57902;49.638;11.070;2022-10-16T08:49:30;98461.38;;;17.14;95.89
70445;BME280;57902;49.638;11.070;2022-10-16T08:51:57;98466.25;;;17.37;93.73
70445;BME280;57902;49.638;11.070;2022-10-16T08:54:34;98480.72;;;17.58;91.93
70445;BME280;57902;49.638;11.070;2022-10-16T08:59:38;98495.75;;;17.69;90.88
70445;BME280;57902;49.638;11.070;2022-10-16T09:05:00;98491.41;;;17.70;91.47
70445;BME280;57902;49.638;11.070;2022-10-16T09:07:53;98486.19;;;17.86;91.54
70445;BME280;57902;49.638;11.070;2022-10-16T09:10:26;98481.94;;;18.15;91.11
70445;BME280;57902;49.638;11.070;2022-10-16T09:13:02;98475.66;;;18.33;88.37
70445;BME280;57902;49.638;11.070;2022-10-16T09:18:34;98492.69;;;18.69;86.76
70445;BME280;57902;49.638;11.070;2022-10-16T09:21:16;98485.22;;;18.78;84.23
70445;BME280;57902;49.638;11.070;2022-10-16T09:23:44;98485.88;;;18.81;84.09
70445;BME280;57902;49.638;11.070;2022-10-16T09:26:13;98488.06;;;18.89;84.50
70445;BME280;57902;49.638;11.070;2022-10-16T09:28:40;98487.69;;;18.95;83.54
70445;BME280;57902;49.638;11.070;2022-10-16T09:31:17;98505.97;;;18.95;83.04
70445;BME280;57902;49.638;11.070;2022-10-16T09:33:48;98504.94;;;18.98;83.22
70445;BME280;57902;49.638;11.070;2022-10-16T09:36:16;98504.75;;;19.01;82.97
70445;BME280;57902;49.638;11.070;2022-10-16T09:38:44;98508.25;;;19.01;82.02
70445;BME280;57902;49.638;11.070;2022-10-16T09:41:15;98511.66;;;18.87;82.82
70445;BME280;57902;49.638;11.070;2022-10-16T09:43:48;98507.75;;;18.95;81.75
70445;BME280;57902;49.638;11.070;2022-10-16T09:46:48;98515.03;;;18.90;81.48
70445;BME280;57902;49.638;11.070;2022-10-16T09:49:26;98514.41;;;18.70;83.50
70445;BME280;57902;49.638;11.070;2022-10-16T09:52:11;98521.78;;;18.63;85.36
70445;BME280;57902;49.638;11.070;2022-10-16T09:54:49;98526.81;;;18.66;82.82
70445;BME280;57902;49.638;11.070;2022-10-16T09:57:16;98522.34;;;18.68;82.77
70445;BME280;57902;49.638;11.070;2022-10-16T09:59:50;98526.16;;;18.63;83.38
70445;BME280;57902;49.638;11.070;2022-10-16T10:02:29;98526.06;;;18.64;83.30
70445;BME280;57902;49.638;11.070;2022-10-16T10:04:56;98523.63;;;18.61;82.15
70445;BME280;57902;49.638;11.070;2022-10-16T10:07:26;98530.56;;;18.77;82.08
70445;BME280;57902;49.638;11.070;2022-10-16T10:09:56;98529.38;;;18.82;82.93
70445;BME280;57902;49.638;11.070;2022-10-16T10:12:25;98525.72;;;18.85;82.84
70445;BME280;57902;49.638;11.070;2022-10-16T10:14:57;98522.59;;;18.94;82.43
70445;BME280;57902;49.638;11.070;2022-10-16T10:17:25;98526.53;;;19.01;80.72
70445;BME280;57902;49.638;11.070;2022-10-16T10:19:58;98519.63;;;19.15;79.70
70445;BME280;57902;49.638;11.070;2022-10-16T10:33:19;98535.09;;;18.89;79.90
70445;BME280;57902;49.638;11.070;2022-10-16T10:36:01;98530.06;;;19.00;79.41
70445;BME280;57902;49.638;11.070;2022-10-16T10:47:15;98533.25;;;18.91;81.14
70445;BME280;57902;49.638;11.070;2022-10-16T10:50:11;98525.22;;;18.94;81.58
70445;BME280;57902;49.638;11.070;2022-10-16T11:06:49;98530.03;;;19.29;80.49
70445;BME280;57902;49.638;11.070;2022-10-16T11:09:20;98525.88;;;19.41;80.06
70445;BME280;57902;49.638;11.070;2022-10-16T11:12:00;98533.03;;;19.52;79.69
70445;BME280;57902;49.638;11.070;2022-10-16T11:17:02;98535.03;;;19.75;77.57
70445;BME280;57902;49.638;11.070;2022-10-16T11:19:37;98536.56;;;19.80;78.32
70445;BME280;57902;49.638;11.070;2022-10-16T11:24:53;98540.47;;;19.87;77.38
70445;BME280;57902;49.638;11.070;2022-10-16T11:27:30;98541.50;;;19.84;76.96
70445;BME280;57902;49.638;11.070;2022-10-16T11:30:02;98536.06;;;19.87;77.61
70445;BME280;57902;49.638;11.070;2022-10-16T11:32:47;98540.34;;;19.88;77.29
70445;BME280;57902;49.638;11.070;2022-10-16T11:35:25;98548.31;;;19.72;78.50
70445;BME280;57902;49.638;11.070;2022-10-16T11:37:59;98553.94;;;19.66;79.18
70445;BME280;57902;49.638;11.070;2022-10-16T11:40:31;98555.03;;;19.76;79.96
70445;BME280;57902;49.638;11.070;2022-10-16T11:43:13;98559.59;;;19.87;79.95
70445;BME280;57902;49.638;11.070;2022-10-16T11:45:44;98563.78;;;20.04;78.02
70445;BME280;57902;49.638;11.070;2022-10-16T11:51:39;98550.91;;;20.41;78.05
70445;BME280;57902;49.638;11.070;2022-10-16T11:54:28;98553.97;;;20.61;74.93
70445;BME280;57902;49.638;11.070;2022-10-16T11:57:03;98547.97;;;20.73;73.64
70445;BME280;57902;49.638;11.070;2022-10-16T11:59:46;98549.44;;;20.90;72.95
70445;BME280;57902;49.638;11.070;2022-10-16T12:02:25;98549.00;;;21.09;71.97
70445;BME280;57902;49.638;11.070;2022-10-16T12:08:14;98544.25;;;21.40;68.19
70445;BME280;57902;49.638;11.070;2022-10-16T12:10:45;98547.91;;;21.38;66.95
70445;BME280;57902;49.638;11.070;2022-10-16T12:13:32;98548.78;;;21.38;68.90
70445;BME280;57902;49.638;11.070;2022-10-16T12:18:40;98558.00;;;21.44;66.34
70445;BME280;57902;49.638;11.070;2022-10-16T12:21:08;98565.16;;;21.29;68.81
70445;BME280;57902;49.638;11.070;2022-10-16T12:23:46;98560.84;;;21.28;69.32
70445;BME280;57902;49.638;11.070;2022-10-16T12:26:13;98562.84;;;21.24;71.67
70445;BME280;57902;49.638;11.070;2022-10-16T12:28:39;98565.34;;;21.39;71.85
70445;BME280;57902;49.638;11.070;2022-10-16T12:31:08;98563.88;;;21.35;71.26
70445;BME280;57902;49.638;11.070;2022-10-16T12:33:38;98566.59;;;21.33;71.05
70445;BME280;57902;49.638;11.070;2022-10-16T12:36:34;98555.63;;;21.28;67.88
70445;BME280;57902;49.638;11.070;2022-10-16T12:39:02;98550.47;;;21.13;70.01
70445;BME280;57902;49.638;11.070;2022-10-16T12:41:33;98550.69;;;20.97;69.83
70445;BME280;57902;49.638;11.070;2022-10-16T12:44:01;98546.69;;;20.92;70.82
70445;BME280;57902;49.638;11.070;2022-10-16T12:51:42;98551.16;;;20.64;71.71
70445;BME280;57902;49.638;11.070;2022-10-16T12:54:15;98549.94;;;20.70;70.83
70445;BME280;57902;49.638;11.070;2022-10-16T12:59:13;98543.78;;;20.43;71.56
70445;BME280;57902;49.638;11.070;2022-10-16T13:04:24;98550.56;;;20.33;72.82
70445;BME280;57902;49.638;11.070;2022-10-16T13:09:44;98556.97;;;20.29;72.98
70445;BME280;57902;49.638;11.070;2022-10-16T13:18:19;98552.75;;;19.99;74.39
70445;BME280;57902;49.638;11.070;2022-10-16T13:23:59;98558.38;;;19.93;75.80
70445;BME280;57902;49.638;11.070;2022-10-16T13:29:30;98552.59;;;20.15;74.83
70445;BME280;57902;49.638;11.070;2022-10-16T13:31:58;98549.97;;;20.15;74.93
70445;BME280;57902;49.638;11.070;2022-10-16T13:34:25;98551.00;;;20.13;74.89
70445;BME280;57902;49.638;11.070;2022-10-16T13:36:52;98556.03;;;20.16;74.55
70445;BME280;57902;49.638;11.070;2022-10-16T13:39:28;98563.16;;;20.14;75.72
70445;BME280;57902;49.638;11.070;2022-10-16T13:42:03;98560.91;;;20.22;74.91
70445;BME280;57902;49.638;11.070;2022-10-16T13:44:47;98566.03;;;20.23;75.61
70445;BME280;57902;49.638;11.070;2022-10-16T13:47:23;98571.38;;;20.22;74.91
70445;BME280;57902;49.638;11.070;2022-10-16T13:50:02;98586.22;;;20.21;75.19
70445;BME280;57902;49.638;11.070;2022-10-16T13:52:30;98586.88;;;20.25;75.40
70445;BME280;57902;49.638;11.070;2022-10-16T13:54:57;98584.47;;;20.22;75.75
70445;BME280;57902;49.638;11.070;2022-10-16T13:57:27;98580.88;;;20.23;75.18
70445;BME280;57902;49.638;11.070;2022-10-16T13:59:54;98582.47;;;20.25;75.76
70445;BME280;57902;49.638;11.070;2022-10-16T14:02:35;98590.34;;;20.25;75.16
70445;BME280;57902;49.638;11.070;2022-10-16T14:05:08;98583.66;;;20.34;74.85
70445;BME280;57902;49.638;11.070;2022-10-16T14:07:36;98586.59;;;20.30;74.21
70445;BME280;57902;49.638;11.070;2022-10-16T14:10:05;98580.69;;;20.26;73.86
70445;BME280;57902;49.638;11.070;2022-10-16T14:12:34;98577.16;;;20.27;72.77
70445;BME280;57902;49.638;11.070;2022-10-16T14:15:01;98585.09;;;20.25;73.03
70445;BME280;57902;49.638;11.070;2022-10-16T14:17:30;98588.28;;;20.31;72.65
70445;BME280;57902;49.638;11.070;2022-10-16T14:19:59;98579.84;;;20.25;71.73
70445;BME280;57902;49.638;11.070;2022-10-16T14:22:41;98583.88;;;20.31;72.73
70445;BME280;57902;49.638;11.070;2022-10-16T14:28:16;98585.56;;;20.32;72.00
70445;BME280;57902;49.638;11.070;2022-10-16T14:30:54;98576.75;;;20.33;72.21
70445;BME280;57902;49.638;11.070;2022-10-16T14:33:25;98576.13;;;20.30;72.90
70445;BME280;57902;49.638;11.070;2022-10-16T14:38:29;98574.81;;;20.22;73.17
70445;BME280;57902;49.638;11.070;2022-10-16T14:40:57;98577.75;;;20.18;73.37